createdAt,value
2022-11-06T00:00:39.637Z,6.10
2022-11-06T00:03:08.305Z,6.90
2022-11-06T00:05:54.480Z,4.90
2022-11-06T00:08:31.909Z,6.33
2022-11-06T00:11:00.258Z,8.13
2022-11-06T00:13:32.392Z,11.47
2022-11-06T00:16:04.614Z,7.33
2022-11-06T00:18:33.186Z,5.67
2022-11-06T00:21:01.843Z,6.90
2022-11-06T00:23:30.001Z,6.77
2022-11-06T00:25:58.264Z,9.70
2022-11-06T00:28:26.598Z,7.40
2022-11-06T00:31:03.697Z,9.03
2022-11-06T00:33:32.311Z,7.43
2022-11-06T00:36:00.736Z,10.50
2022-11-06T00:38:29.296Z,13.60
2022-11-06T00:40:57.657Z,9.20
2022-11-06T00:43:26.191Z,12.23
2022-11-06T00:45:54.318Z,9.53
2022-11-06T00:48:24.130Z,10.90
2022-11-06T00:50:52.238Z,11.23
2022-11-06T00:53:20.531Z,11.60
2022-11-06T00:55:49.143Z,12.10
2022-11-06T00:58:17.421Z,12.27
2022-11-06T01:00:45.753Z,8.83
2022-11-06T01:03:14.272Z,12.67
2022-11-06T01:05:44.056Z,11.80
2022-11-06T01:08:13.021Z,10.90
2022-11-06T01:10:41.611Z,8.90
2022-11-06T01:13:09.759Z,6.70
2022-11-06T01:15:38.604Z,6.93
2022-11-06T01:18:07.160Z,7.30
2022-11-06T01:20:35.472Z,7.93
2022-11-06T01:23:05.748Z,9.07
2022-11-06T01:25:33.986Z,10.40
2022-11-06T01:28:02.250Z,6.80
2022-11-06T01:30:30.830Z,7.23
2022-11-06T01:32:58.928Z,6.80
2022-11-06T01:35:27.513Z,7.90
2022-11-06T01:37:55.714Z,8.73
2022-11-06T01:40:25.502Z,8.80
2022-11-06T01:42:53.772Z,9.00
2022-11-06T01:45:26.900Z,6.40
2022-11-06T01:47:55.422Z,5.60
2022-11-06T01:50:23.820Z,8.03
2022-11-06T01:52:52.238Z,7.90
2022-11-06T01:55:26.270Z,12.83
2022-11-06T01:57:56.097Z,7.90
2022-11-06T02:00:28.755Z,50.70
2022-11-06T02:02:56.979Z,40.47
2022-11-06T02:05:25.729Z,27.63
2022-11-06T02:07:54.653Z,30.70
2022-11-06T02:10:22.857Z,16.60
2022-11-06T02:13:05.231Z,12.00
2022-11-06T02:15:43.944Z,14.47
2022-11-06T02:18:44.242Z,10.30
2022-11-06T02:21:24.988Z,10.93
2022-11-06T02:24:10.758Z,7.43
2022-11-06T02:27:11.383Z,7.50
2022-11-06T02:29:47.507Z,6.67
2022-11-06T02:32:20.418Z,8.20
2022-11-06T02:34:49.216Z,7.13
2022-11-06T02:37:19.795Z,9.23
2022-11-06T02:39:49.565Z,7.20
2022-11-06T02:42:21.054Z,9.20
2022-11-06T02:44:52.070Z,8.10
2022-11-06T02:47:21.195Z,9.43
2022-11-06T02:49:52.283Z,6.60
2022-11-06T02:52:22.959Z,7.53
2022-11-06T02:54:54.116Z,5.67
2022-11-06T02:57:25.274Z,10.73
2022-11-06T03:00:00.928Z,8.50
2022-11-06T03:02:32.339Z,8.63
2022-11-06T03:05:06.761Z,15.83
2022-11-06T03:07:39.177Z,10.73
2022-11-06T03:10:08.590Z,11.47
2022-11-06T03:12:46.815Z,10.73
2022-11-06T03:15:22.562Z,8.53
2022-11-06T03:17:54.949Z,10.03
2022-11-06T03:20:27.263Z,10.87
2022-11-06T03:22:58.984Z,9.33
2022-11-06T03:25:30.119Z,11.17
2022-11-06T03:28:05.817Z,13.00
2022-11-06T03:30:36.770Z,9.83
2022-11-06T03:33:11.033Z,13.40
2022-11-06T03:35:44.721Z,13.30
2022-11-06T03:38:16.548Z,14.13
2022-11-06T03:40:48.800Z,11.27
2022-11-06T03:43:21.989Z,11.53
2022-11-06T03:45:51.325Z,10.83
2022-11-06T03:48:24.544Z,10.50
2022-11-06T03:50:58.256Z,17.30
2022-11-06T03:53:29.485Z,14.10
2022-11-06T03:56:03.430Z,11.07
2022-11-06T03:58:37.921Z,25.67
2022-11-06T04:01:09.676Z,17.03
2022-11-06T04:03:42.665Z,65.83
2022-11-06T04:06:14.216Z,35.33
2022-11-06T04:09:00.452Z,37.83
2022-11-06T04:11:48.151Z,29.30
2022-11-06T04:14:18.301Z,35.57
2022-11-06T04:16:49.740Z,15.67
2022-11-06T04:19:19.846Z,13.70
2022-11-06T04:21:58.168Z,9.63
2022-11-06T04:24:54.194Z,12.53
2022-11-06T04:27:34.031Z,9.53
2022-11-06T04:30:08.227Z,8.20
2022-11-06T04:32:45.288Z,10.70
2022-11-06T04:35:19.007Z,11.43
2022-11-06T04:37:53.320Z,10.87
2022-11-06T04:40:26.805Z,13.60
2022-11-06T04:42:59.737Z,10.70
2022-11-06T04:45:32.868Z,8.77
2022-11-06T04:48:01.555Z,7.70
2022-11-06T04:50:31.146Z,8.20
2022-11-06T04:53:00.083Z,8.33
2022-11-06T04:55:30.813Z,10.67
2022-11-06T04:57:58.919Z,10.93
2022-11-06T05:00:27.000Z,11.47
2022-11-06T05:02:56.514Z,10.80
2022-11-06T05:05:27.678Z,13.70
2022-11-06T05:07:55.733Z,10.50
2022-11-06T05:10:23.981Z,23.73
2022-11-06T05:12:52.298Z,18.30
2022-11-06T05:15:20.931Z,11.33
2022-11-06T05:17:49.198Z,8.90
2022-11-06T05:20:18.823Z,10.50
2022-11-06T05:23:01.096Z,9.70
2022-11-06T05:25:31.906Z,8.43
2022-11-06T05:28:00.126Z,9.20
2022-11-06T05:30:30.050Z,11.83
2022-11-06T05:32:58.477Z,9.20
2022-11-06T05:35:28.736Z,8.67
2022-11-06T05:38:00.395Z,9.83
2022-11-06T05:40:28.928Z,9.23
2022-11-06T05:42:57.398Z,12.20
2022-11-06T05:45:25.616Z,9.90
2022-11-06T05:47:54.148Z,10.27
2022-11-06T05:50:22.363Z,12.40
2022-11-06T05:52:51.878Z,9.00
2022-11-06T05:55:20.059Z,7.73
2022-11-06T05:57:48.477Z,9.30
2022-11-06T06:00:17.028Z,8.07
2022-11-06T06:02:45.347Z,9.33
2022-11-06T06:05:15.834Z,10.80
2022-11-06T06:07:44.410Z,6.80
2022-11-06T06:10:14.212Z,7.37
2022-11-06T06:12:42.396Z,9.50
2022-11-06T06:15:11.780Z,7.10
2022-11-06T06:17:39.853Z,7.87
2022-11-06T06:20:09.713Z,7.60
2022-11-06T06:22:38.049Z,8.60
2022-11-06T06:25:14.636Z,7.90
2022-11-06T06:27:51.108Z,7.43
2022-11-06T06:30:19.906Z,5.20
2022-11-06T06:32:48.334Z,8.77
2022-11-06T06:35:18.046Z,5.23
2022-11-06T06:37:53.441Z,4.83
2022-11-06T06:40:22.234Z,5.00
2022-11-06T06:42:51.799Z,4.33
2022-11-06T06:45:20.092Z,6.27
2022-11-06T06:47:48.321Z,4.93
2022-11-06T06:50:16.957Z,4.70
2022-11-06T06:52:45.153Z,5.97
2022-11-06T06:55:13.268Z,3.37
2022-11-06T06:57:41.770Z,2.93
2022-11-06T07:00:12.667Z,3.50
2022-11-06T07:02:41.115Z,3.20
2022-11-06T07:05:09.948Z,3.53
2022-11-06T07:07:39.170Z,2.63
2022-11-06T07:10:09.648Z,3.00
2022-11-06T07:12:37.982Z,3.63
2022-11-06T07:15:07.102Z,3.00
2022-11-06T07:17:36.517Z,3.17
2022-11-06T07:20:05.999Z,3.20
2022-11-06T07:22:37.504Z,2.87
2022-11-06T07:25:07.436Z,3.10
2022-11-06T07:27:35.581Z,3.23
2022-11-06T07:30:04.234Z,3.90
2022-11-06T07:32:32.542Z,3.43
2022-11-06T07:35:01.979Z,4.13
2022-11-06T07:37:30.120Z,3.20
2022-11-06T07:39:58.854Z,4.70
2022-11-06T07:42:26.952Z,3.60
2022-11-06T07:44:55.647Z,4.20
2022-11-06T07:47:24.198Z,5.83
2022-11-06T07:49:52.281Z,6.77
2022-11-06T07:52:21.793Z,5.50
2022-11-06T07:54:49.922Z,4.87
2022-11-06T07:57:18.038Z,6.20
2022-11-06T07:59:46.322Z,6.40
2022-11-06T08:02:14.967Z,3.73
2022-11-06T08:04:43.544Z,3.60
2022-11-06T08:07:11.954Z,2.47
2022-11-06T08:09:41.473Z,3.60
2022-11-06T08:12:10.039Z,4.60
2022-11-06T08:14:41.545Z,3.83
2022-11-06T08:17:10.681Z,3.80
2022-11-06T08:19:39.311Z,3.43
2022-11-06T08:22:17.826Z,2.83
2022-11-06T08:24:50.928Z,2.73
2022-11-06T08:27:19.351Z,5.30
2022-11-06T08:29:47.324Z,3.97
2022-11-06T08:32:34.886Z,3.37
2022-11-06T08:35:13.390Z,4.13
2022-11-06T08:37:41.498Z,2.77
2022-11-06T08:40:12.828Z,3.27
2022-11-06T08:42:41.054Z,2.17
2022-11-06T08:45:10.516Z,3.17
2022-11-06T08:47:38.555Z,5.50
2022-11-06T08:50:07.374Z,2.47
2022-11-06T08:52:35.491Z,4.73
2022-11-06T08:55:03.482Z,2.40
2022-11-06T08:57:34.025Z,5.33
2022-11-06T09:00:02.058Z,3.20
2022-11-06T09:02:30.196Z,6.33
2022-11-06T09:04:58.275Z,3.40
2022-11-06T09:07:26.348Z,3.03
2022-11-06T09:09:54.895Z,3.30
2022-11-06T09:12:23.158Z,2.73
2022-11-06T09:14:52.588Z,4.30
2022-11-06T09:17:23.824Z,3.57
2022-11-06T09:19:52.161Z,2.53
2022-11-06T09:22:20.766Z,2.47
2022-11-06T09:25:03.294Z,2.20
2022-11-06T09:27:32.736Z,3.57
2022-11-06T09:30:02.279Z,2.17
2022-11-06T09:32:30.953Z,3.53
2022-11-06T09:34:59.501Z,3.10
2022-11-06T09:37:27.480Z,2.80
2022-11-06T09:39:56.047Z,2.57
2022-11-06T09:42:33.487Z,2.23
2022-11-06T09:45:07.999Z,7.20
2022-11-06T09:47:39.919Z,2.73
2022-11-06T09:50:13.937Z,2.13
2022-11-06T09:52:44.802Z,1.60
2022-11-06T09:55:16.452Z,1.50
2022-11-06T09:57:48.434Z,1.80
2022-11-06T10:00:19.079Z,1.60
2022-11-06T10:02:50.322Z,2.30
2022-11-06T10:05:24.971Z,1.63
2022-11-06T10:07:55.334Z,1.60
2022-11-06T10:10:30.593Z,1.70
2022-11-06T10:13:17.277Z,1.23
2022-11-06T10:15:52.010Z,1.30
2022-11-06T10:18:26.002Z,1.80
2022-11-06T10:20:55.608Z,1.30
2022-11-06T10:23:37.755Z,1.97
2022-11-06T10:26:19.709Z,1.67
2022-11-06T10:29:10.430Z,2.30
2022-11-06T10:31:45.648Z,1.80
2022-11-06T10:34:15.850Z,1.23
2022-11-06T10:36:49.954Z,2.10
2022-11-06T10:39:21.209Z,1.90
2022-11-06T10:41:52.842Z,1.60
2022-11-06T10:44:23.880Z,8.13
2022-11-06T10:46:56.318Z,2.20
2022-11-06T10:49:31.838Z,1.73
2022-11-06T10:52:10.694Z,1.67
2022-11-06T10:54:47.744Z,2.00
2022-11-06T10:57:26.199Z,1.30
2022-11-06T10:59:54.372Z,2.47
2022-11-06T11:02:30.957Z,4.23
2022-11-06T11:04:59.198Z,21.63
2022-11-06T11:07:27.964Z,26.43
2022-11-06T11:09:56.005Z,16.80
2022-11-06T11:12:25.892Z,5.00
2022-11-06T11:15:12.116Z,17.83
2022-11-06T11:18:09.228Z,3.27
2022-11-06T11:20:38.665Z,1.90
2022-11-06T11:23:08.671Z,2.00
2022-11-06T11:25:37.037Z,2.43
2022-11-06T11:28:06.562Z,2.57
2022-11-06T11:30:34.813Z,1.67
2022-11-06T11:33:14.191Z,3.00
2022-11-06T11:35:43.174Z,1.70
2022-11-06T11:38:13.811Z,1.87
2022-11-06T11:40:42.212Z,1.80
2022-11-06T11:43:24.887Z,1.60
2022-11-06T11:46:13.605Z,1.33
2022-11-06T11:48:48.135Z,2.03
2022-11-06T11:51:32.364Z,2.23
2022-11-06T11:54:04.880Z,2.00
2022-11-06T11:57:02.289Z,2.30
2022-11-06T11:59:23.670Z,2.27
2022-11-06T12:01:51.965Z,2.17
2022-11-06T12:04:27.276Z,1.43
2022-11-06T12:06:59.073Z,1.77
2022-11-06T12:09:29.208Z,1.77
2022-11-06T12:12:00.125Z,1.63
2022-11-06T12:14:32.190Z,2.07
2022-11-06T12:17:10.196Z,2.20
2022-11-06T12:19:41.666Z,1.60
2022-11-06T12:22:14.137Z,1.73
2022-11-06T12:24:47.497Z,1.47
2022-11-06T12:27:19.307Z,1.80
2022-11-06T12:29:50.145Z,1.90
2022-11-06T12:32:28.347Z,1.40
2022-11-06T12:35:04.935Z,2.13
2022-11-06T12:37:47.584Z,2.60
2022-11-06T12:40:25.030Z,1.50
2022-11-06T12:43:13.268Z,2.47
2022-11-06T12:46:01.355Z,1.20
2022-11-06T12:48:39.705Z,1.20
2022-11-06T12:51:14.377Z,1.97
2022-11-06T12:53:53.937Z,2.10
2022-11-06T12:56:26.513Z,3.90
2022-11-06T12:59:18.954Z,1.90
2022-11-06T13:01:53.915Z,1.30
2022-11-06T13:04:37.726Z,2.10
2022-11-06T13:07:47.055Z,1.70
2022-11-06T13:10:34.797Z,1.37
2022-11-06T13:13:21.996Z,1.83
2022-11-06T13:15:55.655Z,1.30
2022-11-06T13:18:26.907Z,6.80
2022-11-06T13:20:59.216Z,5.03
2022-11-06T13:23:31.328Z,1.20
2022-11-06T13:26:06.361Z,2.70
2022-11-06T13:28:37.159Z,2.20
2022-11-06T13:31:06.391Z,3.83
2022-11-06T13:33:47.075Z,1.87
2022-11-06T13:36:15.390Z,1.37
2022-11-06T13:39:02.151Z,2.17
2022-11-06T13:41:32.862Z,1.57
2022-11-06T13:44:04.068Z,1.63
2022-11-06T13:46:38.616Z,1.83
2022-11-06T13:49:14.925Z,1.13
2022-11-06T13:51:51.656Z,1.20
2022-11-06T13:54:37.231Z,1.67
2022-11-06T13:57:53.442Z,1.67
2022-11-06T14:00:24.210Z,1.30
2022-11-06T14:03:41.309Z,3.47
2022-11-06T14:06:10.777Z,1.73
2022-11-06T14:08:42.874Z,1.27
2022-11-06T14:11:15.264Z,1.07
2022-11-06T14:13:43.841Z,1.77
2022-11-06T14:16:31.915Z,1.20
2022-11-06T14:19:06.481Z,1.40
2022-11-06T14:21:53.800Z,1.20
2022-11-06T14:24:40.501Z,2.47
2022-11-06T14:27:12.771Z,1.77
2022-11-06T14:29:56.594Z,1.40
2022-11-06T14:32:45.744Z,1.40
2022-11-06T14:35:47.940Z,2.17
2022-11-06T14:38:43.722Z,1.43
2022-11-06T14:41:49.211Z,1.97
2022-11-06T14:44:26.938Z,1.27
2022-11-06T14:46:57.576Z,1.40
2022-11-06T14:49:32.976Z,3.37
2022-11-06T14:52:03.082Z,1.53
2022-11-06T14:54:32.003Z,1.10
2022-11-06T14:57:00.141Z,1.27
2022-11-06T14:59:34.596Z,1.57
2022-11-06T15:02:09.759Z,2.40
2022-11-06T15:08:07.835Z,4.00
2022-11-06T15:10:54.119Z,5.80
2022-11-06T15:13:33.119Z,3.40
2022-11-06T15:16:14.003Z,5.03
2022-11-06T15:18:44.626Z,3.73
2022-11-06T15:21:22.530Z,4.17
2022-11-06T15:24:07.576Z,10.63
2022-11-06T15:26:40.340Z,4.67
2022-11-06T15:29:19.670Z,6.33
2022-11-06T15:31:49.492Z,9.23
2022-11-06T15:34:21.614Z,7.60
2022-11-06T15:36:53.544Z,9.77
2022-11-06T15:39:34.929Z,9.60
2022-11-06T15:42:04.078Z,6.60
2022-11-06T15:44:32.509Z,7.93
2022-11-06T15:47:01.967Z,7.00
2022-11-06T15:49:30.459Z,9.30
2022-11-06T15:52:00.108Z,7.60
2022-11-06T15:54:35.929Z,6.50
2022-11-06T15:57:07.380Z,9.10
2022-11-06T15:59:35.787Z,8.13
2022-11-06T16:02:06.880Z,7.30
2022-11-06T16:04:40.834Z,8.50
2022-11-06T16:07:09.370Z,7.77
2022-11-06T16:09:41.360Z,10.47
2022-11-06T16:12:12.822Z,9.60
2022-11-06T16:14:42.012Z,10.43
2022-11-06T16:17:11.950Z,10.30
2022-11-06T16:19:40.744Z,11.13
2022-11-06T16:22:12.010Z,9.10
2022-11-06T16:24:46.953Z,11.50
2022-11-06T16:27:15.839Z,11.57
2022-11-06T16:29:47.381Z,9.10
2022-11-06T16:32:18.321Z,11.80
2022-11-06T16:34:47.938Z,12.30
2022-11-06T16:37:38.169Z,14.93
2022-11-06T16:40:48.690Z,14.37
2022-11-06T16:43:18.486Z,11.00
2022-11-06T16:45:57.725Z,14.77
2022-11-06T16:48:35.965Z,19.93
2022-11-06T16:51:15.388Z,23.70
2022-11-06T16:53:56.000Z,18.77
2022-11-06T16:56:28.340Z,18.27
2022-11-06T16:59:03.509Z,26.43
2022-11-06T17:01:39.090Z,16.40
2022-11-06T17:04:08.020Z,15.80
2022-11-06T17:06:36.866Z,15.57
2022-11-06T17:09:09.954Z,18.97
2022-11-06T17:11:39.635Z,14.93
2022-11-06T17:14:17.575Z,15.43
2022-11-06T17:16:48.933Z,15.53
2022-11-06T17:19:17.206Z,15.00
2022-11-06T17:21:45.261Z,14.20
2022-11-06T17:27:03.046Z,14.03
2022-11-06T17:29:31.767Z,30.80
2022-11-06T17:32:00.154Z,20.73
2022-11-06T17:34:28.532Z,21.33
2022-11-06T17:36:56.680Z,19.67
2022-11-06T17:39:25.799Z,23.63
2022-11-06T17:41:55.351Z,24.30
2022-11-06T17:44:25.256Z,19.93
2022-11-06T17:46:53.293Z,18.83
2022-11-06T17:49:21.596Z,22.90
2022-11-06T17:51:53.665Z,23.70
2022-11-06T17:54:23.236Z,26.57
2022-11-06T17:56:51.684Z,23.60
2022-11-06T17:59:19.996Z,20.10
2022-11-06T18:01:50.567Z,27.10
2022-11-06T18:04:19.532Z,25.20
2022-11-06T18:06:48.656Z,23.70
2022-11-06T18:09:17.035Z,34.53
2022-11-06T18:11:45.649Z,27.30
2022-11-06T18:14:14.123Z,37.60
2022-11-06T18:16:44.144Z,35.47
2022-11-06T18:19:16.730Z,34.27
2022-11-06T18:21:45.068Z,27.93
2022-11-06T18:24:13.933Z,27.73
2022-11-06T18:26:42.336Z,23.80
2022-11-06T18:29:12.283Z,23.80
2022-11-06T18:31:40.766Z,22.93
2022-11-06T18:34:19.447Z,26.20
2022-11-06T18:36:50.326Z,27.50
2022-11-06T18:39:19.020Z,23.70
2022-11-06T18:41:47.669Z,23.57
2022-11-06T18:44:17.154Z,27.50
2022-11-06T18:46:45.902Z,24.97
2022-11-06T18:49:16.066Z,49.70
2022-11-06T18:51:44.150Z,34.03
2022-11-06T18:54:13.467Z,24.97
2022-11-06T18:56:41.775Z,22.80
2022-11-06T18:59:15.365Z,24.10
2022-11-06T19:01:43.566Z,23.80
2022-11-06T19:04:12.175Z,23.13
2022-11-06T19:06:42.458Z,21.10
2022-11-06T19:09:11.265Z,19.37
2022-11-06T19:11:39.866Z,24.40
2022-11-06T19:14:08.720Z,19.27
2022-11-06T19:16:36.927Z,19.97
2022-11-06T19:19:06.485Z,21.67
2022-11-06T19:21:35.732Z,28.87
2022-11-06T19:24:06.604Z,24.10
2022-11-06T19:26:36.344Z,18.20
2022-11-06T19:29:05.386Z,20.07
2022-11-06T19:31:34.355Z,22.20
2022-11-06T19:34:03.999Z,31.50
2022-11-06T19:36:33.524Z,26.90
2022-11-06T19:39:01.945Z,24.03
2022-11-06T19:41:31.540Z,30.00
2022-11-06T19:44:00.067Z,28.63
2022-11-06T19:46:34.037Z,21.83
2022-11-06T19:49:04.942Z,23.17
2022-11-06T19:51:34.267Z,23.80
2022-11-06T19:54:03.962Z,21.73
2022-11-06T19:56:33.918Z,19.60
2022-11-06T19:59:02.490Z,15.10
2022-11-06T20:01:34.594Z,13.10
2022-11-06T20:04:03.641Z,16.17
2022-11-06T20:06:31.812Z,13.30
2022-11-06T20:09:00.261Z,16.90
2022-11-06T20:11:28.374Z,17.67
2022-11-06T20:13:57.995Z,20.80
2022-11-06T20:16:27.532Z,23.90
2022-11-06T20:18:57.317Z,17.37
2022-11-06T20:21:28.437Z,32.20
2022-11-06T20:23:57.479Z,17.93
2022-11-06T20:26:26.107Z,14.00
2022-11-06T20:28:55.251Z,13.90
2022-11-06T20:31:25.433Z,14.20
2022-11-06T20:33:54.326Z,15.33
2022-11-06T20:36:24.611Z,14.20
2022-11-06T20:38:54.050Z,17.63
2022-11-06T20:41:23.741Z,13.67
2022-11-06T20:43:54.921Z,10.80
2022-11-06T20:46:25.592Z,18.60
2022-11-06T20:48:54.574Z,15.63
2022-11-06T20:51:25.064Z,16.90
2022-11-06T20:53:55.432Z,16.13
2022-11-06T20:56:25.553Z,20.73
2022-11-06T20:58:54.230Z,16.07
2022-11-06T21:01:25.688Z,15.57
2022-11-06T21:03:54.756Z,17.50
2022-11-06T21:06:25.154Z,16.17
2022-11-06T21:08:53.538Z,16.47
2022-11-06T21:11:22.948Z,18.57
2022-11-06T21:24:48.567Z,15.33
2022-11-06T21:27:17.580Z,18.90
2022-11-06T21:29:46.903Z,16.37
2022-11-06T21:32:15.787Z,22.33
2022-11-06T21:34:44.863Z,15.63
2022-11-06T21:37:13.045Z,16.47
2022-11-06T21:39:44.229Z,12.63
2022-11-06T21:42:17.479Z,14.27
2022-11-06T21:44:50.092Z,16.20
2022-11-06T21:47:21.714Z,6.70
2022-11-06T21:49:54.117Z,11.73
2022-11-06T21:52:40.894Z,7.03
2022-11-06T21:55:28.341Z,2.00
2022-11-06T21:57:59.302Z,1.90
2022-11-06T22:00:29.647Z,1.93
2022-11-06T22:03:00.847Z,3.10
2022-11-06T22:05:29.671Z,1.80
2022-11-06T22:07:58.185Z,2.03
2022-11-06T22:10:27.509Z,1.53
2022-11-06T22:12:56.811Z,1.70
2022-11-06T22:15:27.385Z,1.10
2022-11-06T22:17:55.991Z,2.40
2022-11-06T22:20:24.543Z,4.30
2022-11-06T22:22:52.807Z,1.33
2022-11-06T22:25:21.248Z,2.20
2022-11-06T22:27:50.421Z,2.13
2022-11-06T22:30:18.674Z,1.40
2022-11-06T22:32:48.178Z,1.10
2022-11-06T22:35:17.004Z,1.77
2022-11-06T22:37:45.619Z,1.80
2022-11-06T22:40:14.114Z,2.53
2022-11-06T22:42:48.549Z,1.40
2022-11-06T22:45:18.221Z,1.50
2022-11-06T22:47:48.912Z,1.27
2022-11-06T22:50:17.686Z,1.10
2022-11-06T22:52:46.218Z,1.10
2022-11-06T22:55:14.500Z,1.10
2022-11-06T22:57:42.766Z,1.33
2022-11-06T23:00:16.265Z,1.30
2022-11-06T23:02:44.815Z,2.47
2022-11-06T23:05:14.683Z,6.20
2022-11-06T23:07:44.195Z,7.30
2022-11-06T23:10:12.286Z,2.30
2022-11-06T23:12:40.756Z,2.07
2022-11-06T23:15:12.154Z,2.33
2022-11-06T23:17:41.248Z,1.90
2022-11-06T23:20:11.095Z,2.83
2022-11-06T23:22:40.602Z,1.60
2022-11-06T23:25:10.438Z,1.77
2022-11-06T23:27:39.895Z,3.27
2022-11-06T23:30:10.451Z,2.43
2022-11-06T23:32:39.935Z,1.97
2022-11-06T23:35:13.469Z,3.00
2022-11-06T23:37:44.178Z,1.20
2022-11-06T23:40:13.616Z,1.93
2022-11-06T23:42:43.313Z,0.90
2022-11-06T23:45:29.433Z,0.80
2022-11-06T23:47:57.831Z,2.33
2022-11-06T23:50:26.026Z,1.37
2022-11-06T23:52:58.324Z,1.10
2022-11-06T23:55:27.013Z,1.50
2022-11-06T23:57:55.191Z,1.00
